Abnaki, Vermont
Current Conditions -  °F | °C
As of 2:35 AM on Wednesday 22 Oct 2014 (Local Time) from KFSO Reporting Station
Drizzle Drizzle  
Wind Chill: 44°   Ceiling: 500
Heat Index: 44°   Visibility: 5mi
Dew Point: 43°   Wind: 3mph
Humidity: 98%   Direction: 350°N
Pressure: 30.12"   Gusts: NA
Location:  44.841°N, 73.2779°W
Report Text: KFSO 220635Z AUTO 35003KT 5SM DZ OVC005 07/06 A3012 RMK AO2 T00650062
Loading
Personal Weather Stations






























Interactive Weather Map
Tropical Storm Tracking
New forecast layout! Learn more

10-Day Weather Forecast

Advertisements
Track Severe Weather on mobile